Time;durP1;ratioP1;P1;durP2;ratioP2;P2;SDS_P1;SDS_P2;PMS_P1;PMS_P2;Temp;Humidity;BMP_temperature;BMP_pressure;BME280_temperature;BME280_humidity;BME280_pressure;Samples;Min_cycle;Max_cycle;Signal;HPM_P1;HPM_P2
2021/04/20 00:00:27;;;;;;;4.50;2.93;;;11.20;99.90;;;;;;5088905;28;20340;-76
2021/04/20 00:02:54;;;;;;;5.97;3.43;;;11.20;99.90;;;;;;5088547;28;20275;-76
2021/04/20 00:05:20;;;;;;;5.83;3.30;;;11.20;99.90;;;;;;5088980;28;20214;-77
2021/04/20 00:07:47;;;;;;;4.97;3.17;;;11.20;99.90;;;;;;5088785;28;20214;-77
2021/04/20 00:10:15;;;;;;;8.80;3.07;;;11.20;99.90;;;;;;5088878;28;20210;-77
2021/04/20 00:12:42;;;;;;;5.03;3.10;;;11.20;99.90;;;;;;5076340;28;20260;-75
2021/04/20 00:15:13;;;;;;;3.93;3.43;;;11.10;99.90;;;;;;5087166;28;20226;-76
2021/04/20 00:17:39;;;;;;;6.13;3.40;;;11.10;99.90;;;;;;5081088;28;20264;-75
2021/04/20 00:20:08;;;;;;;6.53;3.53;;;11.10;99.90;;;;;;5088538;28;20609;-75
2021/04/20 00:22:34;;;;;;;5.87;3.23;;;11.10;99.90;;;;;;5088456;28;20260;-76
2021/04/20 00:25:01;;;;;;;7.90;3.67;;;11.10;99.90;;;;;;5088624;28;20207;-75
2021/04/20 00:27:27;;;;;;;6.77;3.40;;;11.10;99.90;;;;;;5088886;28;20206;-75
2021/04/20 00:29:54;;;;;;;6.80;3.13;;;11.10;99.90;;;;;;5088489;28;20238;-75
2021/04/20 00:32:20;;;;;;;8.67;3.77;;;11.10;99.90;;;;;;5085690;28;20277;-75
2021/04/20 00:34:46;;;;;;;6.07;3.03;;;11.10;99.90;;;;;;5068250;28;20270;-75
2021/04/20 00:37:12;;;;;;;5.90;3.67;;;11.10;99.90;;;;;;5068112;28;20204;-75
2021/04/20 00:39:39;;;;;;;5.40;3.23;;;11.10;99.90;;;;;;5068419;28;20203;-75
2021/04/20 00:42:07;;;;;;;3.63;3.20;;;11.00;99.90;;;;;;5068146;28;20617;-77
2021/04/20 00:44:34;;;;;;;8.63;3.47;;;11.10;99.90;;;;;;5068549;28;20211;-77
2021/04/20 00:47:01;;;;;;;7.17;3.47;;;11.00;99.90;;;;;;5068305;28;20251;-78
2021/04/20 00:49:28;;;;;;;7.07;3.53;;;11.00;99.90;;;;;;5068463;28;20226;-77
2021/04/20 00:51:55;;;;;;;5.03;3.23;;;10.90;99.90;;;;;;5068413;28;20245;-77
2021/04/20 00:54:22;;;;;;;6.80;3.77;;;10.90;99.90;;;;;;5068076;28;20705;-76
2021/04/20 00:56:49;;;;;;;3.77;3.30;;;10.90;99.90;;;;;;5068239;28;20208;-76
2021/04/20 00:59:15;;;;;;;5.70;3.40;;;10.90;99.90;;;;;;5068452;28;20207;-77
2021/04/20 01:01:42;;;;;;;6.47;3.33;;;10.90;99.90;;;;;;5068015;28;20231;-76
2021/04/20 01:04:12;;;;;;;7.57;3.40;;;10.90;99.90;;;;;;5068111;28;20215;-77
2021/04/20 01:06:38;;;;;;;5.73;3.23;;;10.80;99.90;;;;;;5068182;28;20211;-76
2021/04/20 01:09:05;;;;;;;6.60;3.30;;;10.80;99.90;;;;;;5068016;28;20208;-76
2021/04/20 01:11:32;;;;;;;6.17;3.40;;;10.80;99.90;;;;;;5068081;28;20284;-77
2021/04/20 01:14:00;;;;;;;5.97;3.50;;;10.80;99.90;;;;;;5084673;28;20226;-76
2021/04/20 01:16:26;;;;;;;6.00;3.17;;;10.80;99.90;;;;;;5087750;28;20321;-76
2021/04/20 01:18:53;;;;;;;6.83;3.83;;;10.80;99.90;;;;;;5087958;28;20199;-76
2021/04/20 01:21:20;;;;;;;5.00;3.23;;;10.80;99.90;;;;;;5088194;28;20265;-76
2021/04/20 01:23:52;;;;;;;6.30;4.00;;;10.80;99.90;;;;;;5087889;28;20696;-77
2021/04/20 01:26:22;;;;;;;6.77;3.70;;;10.80;99.90;;;;;;5088198;28;20223;-76
2021/04/20 01:28:49;;;;;;;3.63;3.20;;;10.70;99.90;;;;;;5088034;28;20191;-74
2021/04/20 01:31:16;;;;;;;6.93;3.53;;;10.80;99.90;;;;;;5087708;28;20598;-74
2021/04/20 01:33:42;;;;;;;5.60;3.20;;;10.70;99.90;;;;;;5087822;28;20762;-76
2021/04/20 01:36:11;;;;;;;6.30;3.37;;;10.70;99.90;;;;;;5081524;28;20196;-76
2021/04/20 01:38:40;;;;;;;5.83;3.67;;;10.70;99.90;;;;;;5087169;28;20606;-76
2021/04/20 01:41:06;;;;;;;4.77;3.57;;;10.70;99.90;;;;;;5087354;28;20203;-76
2021/04/20 01:43:34;;;;;;;7.33;3.70;;;10.70;99.90;;;;;;5086313;28;20207;-76
2021/04/20 01:46:00;;;;;;;4.20;3.77;;;10.70;99.90;;;;;;5071615;28;20234;-77
2021/04/20 01:48:28;;;;;;;7.83;3.67;;;10.70;99.90;;;;;;5069572;28;20270;-76
2021/04/20 01:50:54;;;;;;;6.97;3.50;;;10.70;99.90;;;;;;5071102;28;20546;-76
2021/04/20 01:53:21;;;;;;;5.83;3.90;;;10.60;99.90;;;;;;5071137;28;20219;-76
2021/04/20 01:55:48;;;;;;;9.17;3.57;;;10.70;99.90;;;;;;5071298;28;20207;-77
2021/04/20 01:58:15;;;;;;;7.93;3.70;;;10.60;99.90;;;;;;5071277;28;20200;-77
2021/04/20 02:00:44;;;;;;;8.40;3.43;;;10.60;99.90;;;;;;5071104;28;20228;-78
2021/04/20 02:03:10;;;;;;;4.47;3.27;;;10.60;99.90;;;;;;5070847;28;20994;-78
2021/04/20 02:05:37;;;;;;;5.60;3.30;;;10.50;99.90;;;;;;5086195;28;20708;-75
2021/04/20 02:08:04;;;;;;;5.20;3.30;;;10.50;99.90;;;;;;5091297;28;20238;-75
2021/04/20 02:10:30;;;;;;;5.00;3.10;;;10.30;99.90;;;;;;5090999;28;20213;-75
2021/04/20 02:12:56;;;;;;;5.70;3.60;;;10.20;99.90;;;;;;5090945;28;20244;-74
2021/04/20 02:15:23;;;;;;;7.83;4.07;;;10.20;99.90;;;;;;5090982;28;20253;-75
2021/04/20 02:17:53;;;;;;;7.20;3.47;;;10.20;99.90;;;;;;5090633;28;20677;-75
2021/04/20 02:20:19;;;;;;;4.00;3.40;;;10.20;99.90;;;;;;5090897;28;20207;-75
2021/04/20 02:22:48;;;;;;;6.43;3.57;;;10.20;99.90;;;;;;5090558;28;20796;-75
2021/04/20 02:25:16;;;;;;;3.40;3.10;;;10.20;99.90;;;;;;5080658;28;20222;-77
2021/04/20 02:27:43;;;;;;;6.90;3.33;;;10.20;99.90;;;;;;5070284;28;20662;-79
2021/04/20 02:30:12;;;;;;;9.33;4.10;;;10.10;99.90;;;;;;5070478;28;20260;-73
2021/04/20 02:32:39;;;;;;;5.83;3.77;;;10.10;99.90;;;;;;5069881;28;20203;-73
2021/04/20 02:35:09;;;;;;;6.60;3.70;;;10.10;99.90;;;;;;5070102;28;20224;-73
2021/04/20 02:37:36;;;;;;;6.73;3.93;;;10.00;99.90;;;;;;5070240;28;20194;-73
2021/04/20 02:40:03;;;;;;;6.17;4.20;;;10.00;99.90;;;;;;5069769;28;20580;-75
2021/04/20 02:42:32;;;;;;;5.67;3.50;;;10.00;99.90;;;;;;5070282;28;20215;-75
2021/04/20 02:45:00;;;;;;;5.53;3.97;;;9.90;99.90;;;;;;5072574;28;20203;-75
2021/04/20 02:47:27;;;;;;;8.17;3.77;;;9.90;99.90;;;;;;5090231;28;20215;-73
2021/04/20 02:49:54;;;;;;;8.77;3.93;;;9.90;99.90;;;;;;5089765;28;20676;-73
2021/04/20 02:52:21;;;;;;;10.97;4.80;;;9.90;99.90;;;;;;5090077;28;20207;-74
2021/04/20 02:54:47;;;;;;;6.77;4.07;;;9.90;99.90;;;;;;5090053;28;20252;-75
2021/04/20 02:57:14;;;;;;;7.63;4.10;;;9.90;99.90;;;;;;5089581;28;20211;-74
2021/04/20 02:59:42;;;;;;;6.93;4.13;;;9.80;99.90;;;;;;5089552;28;20230;-74
2021/04/20 03:02:10;;;;;;;6.10;4.17;;;9.80;99.90;;;;;;5089594;28;20223;-74
2021/04/20 03:04:36;;;;;;;5.10;4.13;;;9.80;99.90;;;;;;5089971;28;20282;-75
2021/04/20 03:07:03;;;;;;;5.60;4.20;;;9.80;99.90;;;;;;5085627;28;20207;-76
2021/04/20 03:09:30;;;;;;;7.07;4.10;;;9.80;99.90;;;;;;5083184;28;20203;-76
2021/04/20 03:11:59;;;;;;;7.27;3.87;;;9.80;99.90;;;;;;5077255;28;20725;-76
2021/04/20 03:14:26;;;;;;;8.73;4.13;;;9.80;99.90;;;;;;5079499;28;20230;-76
2021/04/20 03:16:53;;;;;;;4.33;3.80;;;9.80;99.90;;;;;;5085644;28;20246;-76
2021/04/20 03:19:19;;;;;;;7.97;4.00;;;9.70;99.90;;;;;;5085976;28;20244;-76
2021/04/20 03:21:47;;;;;;;6.13;3.77;;;9.70;99.90;;;;;;5081503;28;20305;-76
2021/04/20 03:24:38;;;;;;;6.30;3.63;;;9.70;99.90;;;;;;5078320;28;20233;-76
2021/04/20 03:27:07;;;;;;;5.50;3.70;;;9.70;99.90;;;;;;5082869;28;20671;-76
2021/04/20 03:29:34;;;;;;;6.43;3.87;;;9.60;99.90;;;;;;5085597;28;20207;-78
2021/04/20 03:32:00;;;;;;;7.90;3.97;;;9.60;99.90;;;;;;5085188;28;20633;-78
2021/04/20 03:34:32;;;;;;;6.97;4.00;;;9.60;99.90;;;;;;5085396;28;20230;-76
2021/04/20 03:37:03;;;;;;;7.00;4.10;;;9.60;99.90;;;;;;5085192;28;20256;-76
2021/04/20 03:39:34;;;;;;;6.80;4.40;;;9.50;99.90;;;;;;5085535;28;20202;-76
2021/04/20 03:42:04;;;;;;;7.10;4.40;;;9.40;99.90;;;;;;5074656;28;20265;-76
2021/04/20 03:44:37;;;;;;;8.10;4.23;;;9.40;99.90;;;;;;5065233;28;20227;-76
2021/04/20 03:47:09;;;;;;;8.00;4.50;;;9.40;99.90;;;;;;5071268;28;20670;-76
2021/04/20 03:49:38;;;;;;;7.87;4.03;;;9.40;99.90;;;;;;5085633;28;20343;-76
2021/04/20 03:52:12;;;;;;;8.27;4.30;;;9.40;99.90;;;;;;5084715;28;20568;-76
2021/04/20 03:54:41;;;;;;;5.20;3.70;;;9.40;99.90;;;;;;5072892;28;20219;-76
2021/04/20 03:57:09;;;;;;;5.70;4.33;;;9.40;99.90;;;;;;5064680;28;20246;-75
2021/04/20 03:59:38;;;;;;;5.30;3.77;;;9.40;99.90;;;;;;5076341;28;20673;-76
2021/04/20 04:02:05;;;;;;;10.10;4.50;;;9.40;99.90;;;;;;5081767;28;20223;-76
2021/04/20 04:04:32;;;;;;;5.27;4.10;;;9.20;99.90;;;;;;5080662;28;20214;-75
2021/04/20 04:07:01;;;;;;;8.00;4.57;;;9.10;99.90;;;;;;5080646;28;20223;-76
2021/04/20 04:09:29;;;;;;;5.33;3.93;;;9.10;99.90;;;;;;5073244;28;20763;-76
2021/04/20 04:11:57;;;;;;;8.90;4.50;;;9.10;99.90;;;;;;5066143;28;20252;-75
2021/04/20 04:14:27;;;;;;;8.07;4.40;;;9.10;99.90;;;;;;5069992;28;20226;-76
2021/04/20 04:16:58;;;;;;;8.93;4.43;;;9.10;99.90;;;;;;5079306;28;20280;-75
2021/04/20 04:19:27;;;;;;;7.83;4.10;;;9.10;99.90;;;;;;5078445;28;20214;-75
2021/04/20 04:22:01;;;;;;;7.30;4.27;;;9.10;99.90;;;;;;5077483;28;20194;-76
2021/04/20 04:24:31;;;;;;;8.00;4.57;;;9.00;99.90;;;;;;5077612;28;20516;-76
2021/04/20 04:27:01;;;;;;;7.43;4.70;;;9.00;99.90;;;;;;5072296;28;20230;-75
2021/04/20 04:29:27;;;;;;;8.73;4.47;;;9.00;99.90;;;;;;5072926;28;20245;-75
2021/04/20 04:31:55;;;;;;;6.97;4.50;;;9.00;99.90;;;;;;5075624;28;20203;-76
2021/04/20 04:34:22;;;;;;;9.17;4.60;;;9.00;99.90;;;;;;5075545;28;20239;-76
2021/04/20 04:36:49;;;;;;;7.00;4.20;;;9.00;99.90;;;;;;5075966;28;20256;-76
2021/04/20 04:39:16;;;;;;;8.17;4.40;;;9.00;99.90;;;;;;5096421;28;20199;-75
2021/04/20 04:41:43;;;;;;;7.43;5.40;;;8.90;99.90;;;;;;5098095;28;20198;-75
2021/04/20 04:44:10;;;;;;;6.80;4.80;;;8.90;99.90;;;;;;5095725;28;20232;-76
2021/04/20 04:46:36;;;;;;;8.07;4.90;;;8.90;99.90;;;;;;5092861;28;20276;-76
2021/04/20 04:49:03;;;;;;;5.53;5.03;;;8.90;99.90;;;;;;5096799;28;20207;-76
2021/04/20 04:51:31;;;;;;;13.17;5.60;;;8.90;99.90;;;;;;5096613;28;20268;-76
2021/04/20 04:53:59;;;;;;;7.20;5.20;;;8.90;99.90;;;;;;5092652;28;20218;-76
2021/04/20 04:56:25;;;;;;;7.77;5.33;;;8.90;99.90;;;;;;5098563;28;20199;-75
2021/04/20 04:58:54;;;;;;;9.60;5.17;;;8.90;99.90;;;;;;5098946;28;20260;-75
2021/04/20 05:01:21;;;;;;;12.47;5.70;;;8.80;99.90;;;;;;5086555;28;20243;-76
2021/04/20 05:03:47;;;;;;;9.20;5.37;;;8.80;99.90;;;;;;5097957;28;20214;-75
2021/04/20 05:06:17;;;;;;;9.57;5.70;;;8.80;99.90;;;;;;5095545;28;20206;-76
2021/04/20 05:08:43;;;;;;;15.00;5.37;;;8.80;99.90;;;;;;5099412;28;20555;-76
2021/04/20 05:11:10;;;;;;;10.13;5.17;;;8.80;99.90;;;;;;5097443;28;20198;-75
2021/04/20 05:13:36;;;;;;;8.63;5.30;;;8.80;99.90;;;;;;5096524;28;20222;-76
2021/04/20 05:16:05;;;;;;;15.07;5.57;;;8.90;99.90;;;;;;5089927;28;20261;-76
2021/04/20 05:18:33;;;;;;;10.83;5.27;;;8.90;99.90;;;;;;5094911;28;20599;-72
2021/04/20 05:21:00;;;;;;;8.20;5.37;;;8.80;99.90;;;;;;5099049;28;20229;-73
2021/04/20 05:23:27;;;;;;;15.37;5.50;;;8.80;99.90;;;;;;5111599;28;20573;-75
2021/04/20 05:25:54;;;;;;;11.63;5.60;;;8.90;99.90;;;;;;5087683;28;20207;-75
2021/04/20 05:28:20;;;;;;;7.40;5.23;;;8.90;99.90;;;;;;5089773;28;20207;-75
2021/04/20 05:30:46;;;;;;;9.13;5.13;;;8.90;99.90;;;;;;5089525;28;20232;-76
2021/04/20 05:33:13;;;;;;;8.30;5.40;;;9.00;99.90;;;;;;5090842;28;20217;-76
2021/04/20 05:35:40;;;;;;;7.27;5.27;;;9.00;99.90;;;;;;5091051;28;20242;-75
2021/04/20 05:38:06;;;;;;;7.80;5.40;;;8.90;99.90;;;;;;5090755;28;20203;-76
2021/04/20 05:40:37;;;;;;;9.97;5.83;;;9.00;99.90;;;;;;5090925;28;20217;-75
2021/04/20 05:43:05;;;;;;;12.23;5.87;;;9.00;99.90;;;;;;5089100;28;20199;-76
2021/04/20 05:45:31;;;;;;;8.70;5.90;;;9.00;99.90;;;;;;5081199;28;20359;-75
2021/04/20 05:47:59;;;;;;;9.33;5.60;;;9.10;99.90;;;;;;5080964;28;20199;-75
2021/04/20 05:50:28;;;;;;;10.03;5.80;;;9.20;99.90;;;;;;5084164;28;20293;-75
2021/04/20 05:52:54;;;;;;;7.90;5.60;;;9.10;99.90;;;;;;5078725;28;20211;-76
2021/04/20 05:55:21;;;;;;;7.60;5.50;;;9.10;99.90;;;;;;5087999;28;20708;-76
2021/04/20 05:57:49;;;;;;;10.73;5.83;;;9.10;99.90;;;;;;5097500;28;20631;-76
2021/04/20 06:00:17;;;;;;;10.50;5.53;;;9.20;99.90;;;;;;5093548;28;20263;-75
2021/04/20 06:02:46;;;;;;;9.10;5.83;;;9.20;99.90;;;;;;5099816;28;20203;-75
2021/04/20 06:05:14;;;;;;;10.70;6.13;;;9.20;99.90;;;;;;5101864;28;20264;-75
2021/04/20 06:07:44;;;;;;;10.63;5.87;;;9.20;99.90;;;;;;5095985;28;20518;-76
2021/04/20 06:10:12;;;;;;;6.83;5.70;;;9.30;99.90;;;;;;5089910;28;20645;-76
2021/04/20 06:12:39;;;;;;;8.43;5.77;;;9.30;99.90;;;;;;5082725;28;20238;-75
2021/04/20 06:15:09;;;;;;;8.70;5.10;;;9.30;99.90;;;;;;5092302;28;20291;-76
2021/04/20 06:17:37;;;;;;;9.47;5.30;;;9.40;99.90;;;;;;5092354;28;20657;-76
2021/04/20 06:20:05;;;;;;;11.73;6.20;;;9.40;99.90;;;;;;5092354;28;20199;-75
2021/04/20 06:22:31;;;;;;;9.17;5.60;;;9.50;99.90;;;;;;5108841;28;20553;-76
2021/04/20 06:24:58;;;;;;;9.53;5.40;;;9.50;99.90;;;;;;5092711;28;20207;-76
2021/04/20 06:27:25;;;;;;;6.57;5.40;;;9.60;99.90;;;;;;5087644;28;20219;-76
2021/04/20 06:29:51;;;;;;;13.50;5.83;;;9.60;99.90;;;;;;5091814;28;20202;-75
2021/04/20 06:32:19;;;;;;;6.70;5.57;;;9.60;99.90;;;;;;5087242;28;20720;-73
2021/04/20 06:34:45;;;;;;;7.63;5.80;;;9.70;99.90;;;;;;5082224;28;20227;-73
2021/04/20 06:37:11;;;;;;;9.40;5.90;;;9.80;99.90;;;;;;5087443;28;20206;-76
2021/04/20 06:39:38;;;;;;;9.03;5.53;;;9.80;99.90;;;;;;5095069;28;20203;-76
2021/04/20 06:42:10;;;;;;;10.73;6.07;;;9.90;99.90;;;;;;5097325;28;20244;-75
2021/04/20 06:44:43;;;;;;;11.17;6.40;;;9.90;99.90;;;;;;5104137;28;20198;-75
2021/04/20 06:47:15;;;;;;;13.80;6.57;;;10.00;99.90;;;;;;5084309;28;20206;-75
2021/04/20 06:49:46;;;;;;;10.90;5.70;;;10.00;99.90;;;;;;5094953;28;20333;-76
2021/04/20 06:52:18;;;;;;;8.63;6.23;;;10.10;99.90;;;;;;5096449;28;20206;-76
2021/04/20 06:54:51;;;;;;;10.67;6.37;;;10.10;99.90;;;;;;5090086;28;20688;-75
2021/04/20 06:57:27;;;;;;;11.10;6.13;;;10.20;99.90;;;;;;5073934;28;20261;-76
2021/04/20 07:00:03;;;;;;;15.50;6.87;;;10.30;99.90;;;;;;5078159;28;20198;-76
2021/04/20 07:02:39;;;;;;;12.17;6.87;;;10.20;99.90;;;;;;5068718;28;20191;-76
2021/04/20 07:05:10;;;;;;;10.27;6.07;;;10.30;99.90;;;;;;5068389;28;20209;-76
2021/04/20 07:07:53;;;;;;;14.90;6.77;;;10.30;99.90;;;;;;5069302;28;20237;-76
2021/04/20 07:10:24;;;;;;;7.43;5.50;;;10.40;99.90;;;;;;5069606;28;20253;-77
2021/04/20 07:12:56;;;;;;;14.10;6.57;;;10.40;99.90;;;;;;5069101;28;20643;-77
2021/04/20 07:15:25;;;;;;;9.77;6.20;;;10.40;99.90;;;;;;5069114;28;20258;-76
2021/04/20 07:18:12;;;;;;;9.50;5.93;;;10.50;99.90;;;;;;5069459;28;20239;-76
2021/04/20 07:20:47;;;;;;;10.67;6.30;;;10.50;99.90;;;;;;5069446;28;20269;-76
2021/04/20 07:23:31;;;;;;;10.57;6.30;;;10.60;99.90;;;;;;5069233;28;20734;-76
2021/04/20 07:26:15;;;;;;;8.07;5.40;;;10.70;99.90;;;;;;5069403;28;20202;-76
2021/04/20 07:28:53;;;;;;;8.77;6.17;;;10.80;99.90;;;;;;5069451;28;20196;-77
2021/04/20 07:31:25;;;;;;;10.07;5.70;;;10.80;99.90;;;;;;5069309;28;20283;-76
2021/04/20 07:34:08;;;;;;;11.70;6.20;;;10.80;99.90;;;;;;5069270;28;20226;-76
2021/04/20 07:36:44;;;;;;;9.90;6.53;;;11.00;99.90;;;;;;5069296;28;20199;-76
2021/04/20 07:39:18;;;;;;;10.57;6.33;;;11.00;99.90;;;;;;5069115;28;20202;-76
2021/04/20 07:41:49;;;;;;;13.23;7.10;;;11.00;99.90;;;;;;5068974;28;20964;-76
2021/04/20 07:44:22;;;;;;;8.40;6.80;;;10.90;99.90;;;;;;5068841;28;20196;-77
2021/04/20 07:46:52;;;;;;;8.97;6.70;;;10.90;99.90;;;;;;5068361;28;20218;-76
2021/04/20 07:49:23;;;;;;;11.67;6.40;;;10.80;99.90;;;;;;5069017;28;20245;-76
2021/04/20 07:51:58;;;;;;;7.77;5.90;;;11.00;99.90;;;;;;5069087;28;20219;-76
2021/04/20 07:54:40;;;;;;;8.97;5.93;;;11.10;99.90;;;;;;5068636;28;20631;-76
2021/04/20 07:57:16;;;;;;;9.10;6.20;;;11.10;99.90;;;;;;5068738;28;20195;-76
2021/04/20 07:59:55;;;;;;;10.07;5.80;;;11.10;99.90;;;;;;5069065;28;20201;-76
2021/04/20 08:02:34;;;;;;;10.73;6.17;;;11.20;99.90;;;;;;5069024;28;20210;-76
2021/04/20 08:05:08;;;;;;;9.50;5.80;;;11.40;99.90;;;;;;5068703;28;20221;-77
2021/04/20 08:07:44;;;;;;;8.40;5.93;;;11.40;99.90;;;;;;5069032;28;20215;-77
2021/04/20 08:10:13;;;;;;;10.30;5.77;;;11.50;99.90;;;;;;5068903;28;20195;-76
2021/04/20 08:12:49;;;;;;;8.80;5.90;;;11.60;99.90;;;;;;5068642;28;20204;-76
2021/04/20 08:15:24;;;;;;;9.43;5.57;;;11.60;99.90;;;;;;5068082;28;20246;-76
2021/04/20 08:17:58;;;;;;;10.30;5.60;;;11.60;99.90;;;;;;5068938;28;20191;-77
2021/04/20 08:20:25;;;;;;;11.03;6.27;;;11.70;99.90;;;;;;5068777;28;20191;-76
2021/04/20 08:22:54;;;;;;;9.57;6.37;;;11.80;99.90;;;;;;5068546;28;20211;-77
2021/04/20 08:25:24;;;;;;;10.47;5.40;;;11.90;99.90;;;;;;5068489;28;20217;-77
2021/04/20 08:27:55;;;;;;;8.40;5.57;;;12.00;99.90;;;;;;5068624;28;20226;-76
2021/04/20 08:30:28;;;;;;;12.00;6.07;;;12.10;99.90;;;;;;5068455;28;20201;-76
2021/04/20 08:32:57;;;;;;;11.47;6.13;;;12.20;99.90;;;;;;5068394;28;20191;-77
2021/04/20 08:35:27;;;;;;;9.67;5.43;;;12.20;99.90;;;;;;5068464;28;20239;-76
2021/04/20 08:38:17;;;;;;;7.83;5.63;;;12.30;99.90;;;;;;5068534;28;20708;-78
2021/04/20 08:40:49;;;;;;;10.13;6.20;;;12.40;99.90;;;;;;5060381;28;20218;-77
2021/04/20 08:43:27;;;;;;;13.60;6.10;;;12.50;99.90;;;;;;5068414;28;20223;-77
2021/04/20 08:45:59;;;;;;;12.17;6.17;;;12.50;99.90;;;;;;5068450;28;20296;-77
2021/04/20 08:48:35;;;;;;;9.33;5.87;;;12.60;99.90;;;;;;5068338;28;20221;-76
2021/04/20 08:51:08;;;;;;;9.77;5.20;;;12.70;99.90;;;;;;5068288;28;20195;-77
2021/04/20 08:53:51;;;;;;;10.00;5.03;;;12.80;99.90;;;;;;5067541;28;20659;-77
2021/04/20 08:56:23;;;;;;;8.77;5.80;;;12.90;99.90;;;;;;5068570;28;20614;-77
2021/04/20 08:59:17;;;;;;;8.77;5.50;;;13.10;99.90;;;;;;5072335;28;20659;-77
2021/04/20 09:01:54;;;;;;;8.50;5.60;;;13.10;99.90;;;;;;5072093;28;20223;-78
2021/04/20 09:04:45;;;;;;;10.00;4.83;;;13.20;99.90;;;;;;5072316;28;20204;-76
2021/04/20 09:07:16;;;;;;;8.30;5.20;;;13.30;99.90;;;;;;5042691;28;20569;-76
2021/04/20 09:09:47;;;;;;;10.70;6.10;;;13.40;99.90;;;;;;5072320;28;20559;-77
2021/04/20 09:12:15;;;;;;;8.40;5.90;;;13.50;99.90;;;;;;5071639;28;20226;-77
2021/04/20 09:14:44;;;;;;;18.30;6.80;;;13.60;99.90;;;;;;5071774;28;20235;-77
2021/04/20 09:17:13;;;;;;;10.83;5.63;;;13.70;99.90;;;;;;5071887;28;20229;-77
2021/04/20 09:19:45;;;;;;;57.07;9.77;;;13.80;99.90;;;;;;5072199;28;20211;-77
2021/04/20 09:22:19;;;;;;;10.97;6.30;;;13.90;99.90;;;;;;5071621;28;20214;-77
2021/04/20 09:25:04;;;;;;;7.43;5.23;;;14.00;99.90;;;;;;5071934;28;20237;-77
2021/04/20 09:27:44;;;;;;;7.37;5.40;;;14.00;99.90;;;;;;5071971;28;20574;-77
2021/04/20 09:30:15;;;;;;;7.53;5.47;;;14.20;99.90;;;;;;5071731;28;20605;-77
2021/04/20 09:32:46;;;;;;;6.73;5.20;;;14.20;99.90;;;;;;5071645;28;20245;-77
2021/04/20 09:35:14;;;;;;;11.37;5.47;;;14.30;99.90;;;;;;5071324;28;20289;-77
2021/04/20 09:37:42;;;;;;;6.80;5.20;;;14.30;99.90;;;;;;5071840;28;20204;-77
2021/04/20 09:40:13;;;;;;;10.80;6.47;;;14.40;99.90;;;;;;5071682;28;20204;-76
2021/04/20 09:42:42;;;;;;;11.20;5.63;;;14.40;99.90;;;;;;5071269;28;20215;-76
2021/04/20 09:45:13;;;;;;;8.53;5.17;;;14.30;99.90;;;;;;5071755;28;20222;-77
2021/04/20 09:48:08;;;;;;;6.97;5.70;;;14.40;99.90;;;;;;5071458;28;20191;-76
2021/04/20 09:50:43;;;;;;;9.50;5.80;;;14.50;99.90;;;;;;5071271;28;20195;-77
2021/04/20 09:53:21;;;;;;;7.27;5.17;;;14.50;99.90;;;;;;5071145;28;20191;-77
2021/04/20 09:55:56;;;;;;;9.63;5.73;;;14.60;99.90;;;;;;5071403;28;20281;-77
2021/04/20 09:58:24;;;;;;;8.10;5.60;;;14.70;99.90;;;;;;5071265;28;20241;-77
2021/04/20 10:00:50;;;;;;;8.50;5.67;;;14.80;99.90;;;;;;5071069;28;20258;-77
2021/04/20 10:03:27;;;;;;;8.67;5.93;;;14.90;99.90;;;;;;5071107;28;20209;-77
2021/04/20 10:06:14;;;;;;;7.60;5.33;;;15.00;99.90;;;;;;5071159;28;20211;-77
2021/04/20 10:08:55;;;;;;;8.53;5.73;;;15.00;99.90;;;;;;5070052;28;20206;-77
2021/04/20 10:11:30;;;;;;;7.93;5.70;;;15.10;99.90;;;;;;5070564;28;20191;-78
2021/04/20 10:14:03;;;;;;;13.40;5.50;;;15.20;99.90;;;;;;5070851;28;20231;-77
2021/04/20 10:16:38;;;;;;;8.20;5.80;;;15.30;99.90;;;;;;5070772;28;20235;-77
2021/04/20 10:19:18;;;;;;;8.73;5.70;;;15.40;99.90;;;;;;5070786;28;20202;-78
2021/04/20 10:21:57;;;;;;;8.50;5.70;;;15.40;99.90;;;;;;5070732;28;20195;-77
2021/04/20 10:24:25;;;;;;;9.90;6.10;;;15.60;99.90;;;;;;5070623;28;20977;-78
2021/04/20 10:26:59;;;;;;;9.23;6.23;;;15.60;99.90;;;;;;5070664;28;20218;-77
2021/04/20 10:29:28;;;;;;;9.97;5.60;;;15.70;99.90;;;;;;5070753;28;20195;-78
2021/04/20 10:31:59;;;;;;;8.47;6.17;;;15.70;99.90;;;;;;5070536;28;20277;-77
2021/04/20 10:34:27;;;;;;;8.10;5.77;;;15.70;99.90;;;;;;5070323;28;20227;-78
2021/04/20 10:36:56;;;;;;;7.63;5.67;;;15.90;99.90;;;;;;5070781;28;20256;-78
2021/04/20 10:39:24;;;;;;;7.73;5.73;;;16.00;99.90;;;;;;5070095;28;20584;-78
2021/04/20 10:41:53;;;;;;;9.83;6.03;;;16.10;99.90;;;;;;5069850;28;20585;-78
2021/04/20 10:44:21;;;;;;;9.67;5.67;;;16.20;99.90;;;;;;5070035;28;20203;-78
2021/04/20 10:46:53;;;;;;;11.67;5.90;;;16.30;99.90;;;;;;5070251;28;20685;-77
2021/04/20 10:49:21;;;;;;;11.33;5.83;;;16.40;99.90;;;;;;5070307;28;20249;-77
2021/04/20 10:51:54;;;;;;;6.80;5.40;;;16.30;99.90;;;;;;5070166;28;20211;-78
2021/04/20 10:54:21;;;;;;;7.67;5.80;;;16.40;99.90;;;;;;5069929;28;20318;-78
2021/04/20 10:56:50;;;;;;;6.33;5.47;;;16.40;99.90;;;;;;5070177;28;20211;-78
2021/04/20 10:59:29;;;;;;;9.23;5.30;;;16.50;99.90;;;;;;5069736;28;20214;-77
2021/04/20 11:01:58;;;;;;;11.13;6.17;;;16.60;99.90;;;;;;5070395;28;20215;-78
2021/04/20 11:04:27;;;;;;;9.63;6.07;;;16.70;99.90;;;;;;5069578;28;20203;-78
2021/04/20 11:07:17;;;;;;;12.03;6.20;;;17.00;99.90;;;;;;5069822;28;20208;-78
2021/04/20 11:09:43;;;;;;;11.10;6.50;;;17.30;99.90;;;;;;5069873;28;20200;-78
2021/04/20 11:12:15;;;;;;;8.37;6.10;;;17.40;99.90;;;;;;5069349;28;20819;-78
2021/04/20 11:14:44;;;;;;;7.40;5.90;;;17.60;99.90;;;;;;5069156;28;20682;-78
2021/04/20 11:17:17;;;;;;;7.57;5.57;;;17.70;99.80;;;;;;5069493;28;20558;-78
2021/04/20 11:19:47;;;;;;;7.60;5.53;;;17.80;99.60;;;;;;5069404;28;20705;-78
2021/04/20 11:22:16;;;;;;;7.93;5.97;;;17.90;99.60;;;;;;5069317;28;20261;-78
2021/04/20 11:24:48;;;;;;;9.07;5.80;;;17.90;99.20;;;;;;5089366;28;20198;-78
2021/04/20 11:27:17;;;;;;;5.70;5.17;;;17.90;98.90;;;;;;5084537;28;20194;-78
2021/04/20 11:29:52;;;;;;;7.67;5.27;;;17.90;99.50;;;;;;5073396;28;20211;-77
2021/04/20 11:32:22;;;;;;;10.43;5.60;;;18.10;99.50;;;;;;5087835;28;20206;-78
2021/04/20 11:34:51;;;;;;;8.63;5.47;;;18.10;98.60;;;;;;5088673;28;20237;-78
2021/04/20 11:37:21;;;;;;;7.10;5.53;;;18.20;98.80;;;;;;5088745;28;20206;-79
2021/04/20 11:39:53;;;;;;;8.77;5.40;;;18.60;99.70;;;;;;5084293;28;20558;-79
2021/04/20 11:42:26;;;;;;;6.13;5.00;;;18.60;98.90;;;;;;5075791;28;20223;-78
2021/04/20 11:44:58;;;;;;;6.47;4.90;;;18.70;98.70;;;;;;5083892;28;20213;-79
2021/04/20 11:47:25;;;;;;;9.60;5.57;;;18.70;98.10;;;;;;5083905;28;20280;-78
2021/04/20 11:49:55;;;;;;;8.37;5.27;;;18.80;98.00;;;;;;5089301;28;20202;-79
2021/04/20 11:52:24;;;;;;;11.60;5.00;;;18.90;98.10;;;;;;5071719;28;20202;-73
2021/04/20 11:54:55;;;;;;;8.13;5.77;;;19.00;98.30;;;;;;5074713;28;20641;-74
2021/04/20 11:57:22;;;;;;;6.33;5.13;;;19.10;98.20;;;;;;5080124;28;20216;-79
2021/04/20 11:59:49;;;;;;;5.60;5.10;;;19.20;97.50;;;;;;5085457;28;20569;-79
2021/04/20 12:02:18;;;;;;;23.67;6.17;;;19.30;97.90;;;;;;5085841;28;20202;-79
2021/04/20 12:04:47;;;;;;;7.37;5.13;;;19.40;97.70;;;;;;5074583;28;20214;-79
2021/04/20 12:07:15;;;;;;;6.17;5.40;;;19.40;97.80;;;;;;5075165;28;20215;-79
2021/04/20 12:09:43;;;;;;;8.17;5.37;;;19.50;97.60;;;;;;5073881;28;20759;-79
2021/04/20 12:12:10;;;;;;;6.70;5.17;;;19.60;97.40;;;;;;5077788;28;20207;-79
2021/04/20 12:14:38;;;;;;;9.70;4.87;;;19.60;96.60;;;;;;5085556;28;20246;-79
2021/04/20 12:17:05;;;;;;;11.43;5.63;;;19.80;97.10;;;;;;5088070;28;20376;-79
2021/04/20 12:19:33;;;;;;;8.83;5.70;;;19.80;96.60;;;;;;5088294;28;20210;-80
2021/04/20 12:22:02;;;;;;;10.73;5.73;;;19.80;96.30;;;;;;5087971;28;20211;-79
2021/04/20 12:24:30;;;;;;;7.73;5.73;;;19.80;96.10;;;;;;5087933;28;20211;-79
2021/04/20 12:27:01;;;;;;;7.37;5.07;;;19.70;96.30;;;;;;5088117;28;20207;-80
2021/04/20 12:29:32;;;;;;;8.60;6.10;;;19.80;96.20;;;;;;5088450;28;20191;-79
2021/04/20 12:31:59;;;;;;;10.63;5.77;;;19.90;96.40;;;;;;5087023;28;20191;-79
2021/04/20 12:34:26;;;;;;;7.00;5.30;;;20.00;95.80;;;;;;5087891;28;20825;-79
2021/04/20 12:36:56;;;;;;;10.37;5.87;;;20.00;95.00;;;;;;5087970;28;20278;-79
2021/04/20 12:39:28;;;;;;;8.30;5.60;;;20.10;95.40;;;;;;5087501;28;20207;-79
2021/04/20 12:41:55;;;;;;;8.43;5.22;;;20.20;94.70;;;;;;5087214;28;21076;-80
2021/04/20 12:44:25;;;;;;;6.13;5.10;;;20.20;94.30;;;;;;5087993;28;20211;-79
2021/04/20 12:46:53;;;;;;;8.13;5.35;;;20.30;94.50;;;;;;5087389;28;20199;-79
2021/04/20 12:49:22;;;;;;;5.90;5.30;;;20.30;94.00;;;;;;5067365;28;20203;-80
2021/04/20 12:51:49;;;;;;;5.97;4.78;;;20.30;93.60;;;;;;5067955;28;20215;-79
2021/04/20 12:54:21;;;;;;;6.93;5.37;;;20.30;93.30;;;;;;5077707;28;20210;-79
2021/04/20 12:56:52;;;;;;;6.20;5.10;;;20.40;93.20;;;;;;5087503;28;20224;-79
2021/04/20 12:59:22;;;;;;;10.20;5.15;;;20.50;92.90;;;;;;5075527;28;20674;-79
2021/04/20 13:01:50;;;;;;;6.97;5.70;;;20.60;92.90;;;;;;5090017;28;20233;-79